KHLG/HLG METAR and TAF weather

Enter ICAO airport designator
Station Type Date Time Source
KHLG METAR 2019/12/10 19:15 UTC NOAA

KHLG 101915Z 26014G23KT 10SM BKN028 OVC033 00/M06 A3001 RMK AO2 PK WND 26026/1856 T00001061


Station Type Date Time Source
KHLG Decoded METAR 2019/12/10 19:15 UTC NOAA

WHEELING OHIO COUNTY AIRPORT, WV, United States (KHLG) 40-10N 080-39W 372M
Dec 10, 2019 - 02:15 PM EST / 2019.12.10 1915 UTC
Wind: from the W (260 degrees) at 16 MPH (14 KT) gusting to 26 MPH (23 KT):0
Visibility: 10 mile(s):0
Sky conditions: overcast
Temperature: 32.0 F (0.0 C)
Windchill: 21 F (-6 C):1
Dew Point: 21.0 F (-6.1 C)
Relative Humidity: 63%
Pressure (altimeter): 30.01 in. Hg (1016 hPa)
ob: KHLG 101915Z 26014G23KT 10SM BKN028 OVC033 00/M06 A3001 RMK AO2 PK WND 26026/1856 T00001061
cycle: 19

Station Type Date Time Source
KHLG TAF 2019/12/10 18:27 UTC NOAA

TAF KHLG 101723Z 1018/1118 27010G18KT P6SM SCT025 BKN060
FM101900 27010G18KT P6SM BKN025
FM110100 27010KT P6SM BKN035
FM110600 26009KT P6SM FEW250
FM111500 25013G22KT P6SM FEW050

Example: see airport list